sensor_id;sensor_type;location;lat;lon;timestamp;pressure;altitude;pressure_sealevel;temperature;humidity
53300;BME280;39187;48.476;8.310;2023-07-09T00:02:01;91866.56;;;22.18;50.00
53300;BME280;39187;48.476;8.310;2023-07-09T00:04:27;91872.91;;;22.15;50.07
53300;BME280;39187;48.476;8.310;2023-07-09T00:07:02;91869.00;;;22.16;50.12
53300;BME280;39187;48.476;8.310;2023-07-09T00:09:28;91867.22;;;22.13;50.44
53300;BME280;39187;48.476;8.310;2023-07-09T00:11:53;91869.94;;;22.13;50.69
53300;BME280;39187;48.476;8.310;2023-07-09T00:14:20;91865.53;;;22.16;51.06
53300;BME280;39187;48.476;8.310;2023-07-09T00:16:46;91862.06;;;22.15;51.26
53300;BME280;39187;48.476;8.310;2023-07-09T00:19:17;91859.19;;;22.19;51.34
53300;BME280;39187;48.476;8.310;2023-07-09T00:21:44;91868.25;;;22.16;51.48
53300;BME280;39187;48.476;8.310;2023-07-09T00:24:13;91873.50;;;22.19;51.42
53300;BME280;39187;48.476;8.310;2023-07-09T00:26:40;91860.41;;;22.18;51.40
53300;BME280;39187;48.476;8.310;2023-07-09T00:29:11;91861.69;;;22.22;51.15
53300;BME280;39187;48.476;8.310;2023-07-09T00:31:38;91863.66;;;22.22;50.95
53300;BME280;39187;48.476;8.310;2023-07-09T00:34:08;91870.56;;;22.23;50.68
53300;BME280;39187;48.476;8.310;2023-07-09T00:36:37;91871.31;;;22.23;50.50
53300;BME280;39187;48.476;8.310;2023-07-09T00:39:02;91859.25;;;22.24;50.27
53300;BME280;39187;48.476;8.310;2023-07-09T00:41:35;91863.75;;;22.27;49.88
53300;BME280;39187;48.476;8.310;2023-07-09T00:49:26;91864.22;;;22.26;49.35
53300;BME280;39187;48.476;8.310;2023-07-09T00:51:52;91862.44;;;22.23;49.12
53300;BME280;39187;48.476;8.310;2023-07-09T00:54:40;91872.53;;;22.22;49.08
53300;BME280;39187;48.476;8.310;2023-07-09T00:57:15;91863.47;;;22.25;48.79
53300;BME280;39187;48.476;8.310;2023-07-09T00:59:57;91859.25;;;22.24;48.58
53300;BME280;39187;48.476;8.310;2023-07-09T01:02:25;91867.84;;;22.23;48.47
53300;BME280;39187;48.476;8.310;2023-07-09T01:04:56;91863.94;;;22.24;48.28
53300;BME280;39187;48.476;8.310;2023-07-09T01:07:27;91866.34;;;22.22;48.24
53300;BME280;39187;48.476;8.310;2023-07-09T01:09:52;91869.81;;;22.22;48.09
53300;BME280;39187;48.476;8.310;2023-07-09T01:12:20;91861.22;;;22.24;48.09
53300;BME280;39187;48.476;8.310;2023-07-09T01:14:47;91858.03;;;22.25;47.93
53300;BME280;39187;48.476;8.310;2023-07-09T01:17:17;91864.69;;;22.24;48.00
53300;BME280;39187;48.476;8.310;2023-07-09T01:19:49;91873.28;;;22.23;48.26
53300;BME280;39187;48.476;8.310;2023-07-09T01:22:16;91867.78;;;22.17;48.06
53300;BME280;39187;48.476;8.310;2023-07-09T01:24:50;91869.47;;;22.15;47.92
53300;BME280;39187;48.476;8.310;2023-07-09T01:27:20;91856.84;;;22.12;48.00
53300;BME280;39187;48.476;8.310;2023-07-09T01:29:46;91857.31;;;22.10;48.00
53300;BME280;39187;48.476;8.310;2023-07-09T01:32:19;91855.63;;;22.13;47.66
53300;BME280;39187;48.476;8.310;2023-07-09T01:34:46;91853.69;;;21.98;47.94
53300;BME280;39187;48.476;8.310;2023-07-09T01:37:22;91858.06;;;22.11;47.36
53300;BME280;39187;48.476;8.310;2023-07-09T01:39:49;91851.81;;;22.05;47.64
53300;BME280;39187;48.476;8.310;2023-07-09T01:42:16;91855.81;;;22.09;47.60
53300;BME280;39187;48.476;8.310;2023-07-09T01:44:46;91851.91;;;22.10;47.81
53300;BME280;39187;48.476;8.310;2023-07-09T01:47:12;91858.06;;;22.11;47.77
53300;BME280;39187;48.476;8.310;2023-07-09T01:49:37;91857.13;;;22.14;47.81
53300;BME280;39187;48.476;8.310;2023-07-09T01:52:06;91854.69;;;22.16;47.87
53300;BME280;39187;48.476;8.310;2023-07-09T01:54:35;91858.91;;;22.17;47.91
53300;BME280;39187;48.476;8.310;2023-07-09T01:59:45;91856.47;;;22.19;47.56
53300;BME280;39187;48.476;8.310;2023-07-09T02:02:11;91855.72;;;22.18;47.54
53300;BME280;39187;48.476;8.310;2023-07-09T02:04:48;91865.34;;;22.19;47.55
53300;BME280;39187;48.476;8.310;2023-07-09T02:07:15;91860.69;;;22.20;47.58
53300;BME280;39187;48.476;8.310;2023-07-09T02:09:41;91866.84;;;22.20;47.41
53300;BME280;39187;48.476;8.310;2023-07-09T02:12:08;91854.03;;;22.21;46.99
53300;BME280;39187;48.476;8.310;2023-07-09T02:14:33;91864.88;;;22.21;45.98
53300;BME280;39187;48.476;8.310;2023-07-09T02:16:59;91865.34;;;22.19;46.38
53300;BME280;39187;48.476;8.310;2023-07-09T02:19:25;91860.84;;;22.16;46.43
53300;BME280;39187;48.476;8.310;2023-07-09T02:21:50;91865.72;;;22.12;46.52
53300;BME280;39187;48.476;8.310;2023-07-09T02:24:16;91860.03;;;22.10;46.43
53300;BME280;39187;48.476;8.310;2023-07-09T02:26:41;91865.44;;;22.10;46.30
53300;BME280;39187;48.476;8.310;2023-07-09T02:29:07;91857.78;;;22.09;46.23
53300;BME280;39187;48.476;8.310;2023-07-09T02:31:33;91860.78;;;22.11;46.31
53300;BME280;39187;48.476;8.310;2023-07-09T02:33:59;91864.53;;;22.13;46.36
53300;BME280;39187;48.476;8.310;2023-07-09T02:36:25;91847.78;;;22.15;45.99
53300;BME280;39187;48.476;8.310;2023-07-09T02:38:51;91855.81;;;22.09;46.10
53300;BME280;39187;48.476;8.310;2023-07-09T02:41:16;91858.06;;;22.11;46.64
53300;BME280;39187;48.476;8.310;2023-07-09T02:43:42;91857.59;;;22.12;47.04
53300;BME280;39187;48.476;8.310;2023-07-09T02:46:08;91857.13;;;22.14;47.30
53300;BME280;39187;48.476;8.310;2023-07-09T02:48:33;91868.25;;;22.16;47.73
53300;BME280;39187;48.476;8.310;2023-07-09T02:50:59;91871.69;;;22.16;48.34
53300;BME280;39187;48.476;8.310;2023-07-09T02:53:25;91869.00;;;22.16;48.88
53300;BME280;39187;48.476;8.310;2023-07-09T02:55:51;91867.78;;;22.17;49.11
53300;BME280;39187;48.476;8.310;2023-07-09T02:58:16;91870.50;;;22.17;49.25
53300;BME280;39187;48.476;8.310;2023-07-09T03:00:42;91875.16;;;22.17;49.35
53300;BME280;39187;48.476;8.310;2023-07-09T03:03:07;91869.00;;;22.16;49.36
53300;BME280;39187;48.476;8.310;2023-07-09T03:05:33;91874.63;;;22.13;49.61
53300;BME280;39187;48.476;8.310;2023-07-09T03:07:58;91868.91;;;22.11;49.68
53300;BME280;39187;48.476;8.310;2023-07-09T03:10:24;91877.78;;;22.11;49.73
53300;BME280;39187;48.476;8.310;2023-07-09T03:12:49;91872.84;;;22.10;50.04
53300;BME280;39187;48.476;8.310;2023-07-09T03:15:15;91867.50;;;22.15;50.04
53300;BME280;39187;48.476;8.310;2023-07-09T03:17:40;91879.22;;;22.07;50.52
53300;BME280;39187;48.476;8.310;2023-07-09T03:20:06;91880.78;;;22.13;50.22
53300;BME280;39187;48.476;8.310;2023-07-09T03:22:33;91875.75;;;22.06;50.29
53300;BME280;39187;48.476;8.310;2023-07-09T03:24:58;91871.44;;;22.14;49.86
53300;BME280;39187;48.476;8.310;2023-07-09T03:27:24;91877.88;;;22.17;49.58
53300;BME280;39187;48.476;8.310;2023-07-09T03:29:49;91876.97;;;22.05;49.85
53300;BME280;39187;48.476;8.310;2023-07-09T03:32:15;91875.09;;;22.11;49.66
53300;BME280;39187;48.476;8.310;2023-07-09T03:34:40;91884.34;;;22.19;49.44
53300;BME280;39187;48.476;8.310;2023-07-09T03:37:06;91877.69;;;22.20;49.43
53300;BME280;39187;48.476;8.310;2023-07-09T03:39:31;91885.34;;;22.22;49.66
53300;BME280;39187;48.476;8.310;2023-07-09T03:41:57;91877.03;;;22.11;49.89
53300;BME280;39187;48.476;8.310;2023-07-09T03:44:22;91897.69;;;21.93;50.52
53300;BME280;39187;48.476;8.310;2023-07-09T03:46:48;91890.00;;;21.77;50.98
53300;BME280;39187;48.476;8.310;2023-07-09T03:49:13;91897.03;;;21.84;50.79
53300;BME280;39187;48.476;8.310;2023-07-09T03:51:39;91898.34;;;21.88;50.62
53300;BME280;39187;48.476;8.310;2023-07-09T03:54:04;91895.66;;;22.03;50.25
53300;BME280;39187;48.476;8.310;2023-07-09T03:56:31;91895.47;;;22.07;49.90
53300;BME280;39187;48.476;8.310;2023-07-09T03:58:56;91894.59;;;22.15;49.83
53300;BME280;39187;48.476;8.310;2023-07-09T04:01:22;91893.22;;;22.20;49.65
53300;BME280;39187;48.476;8.310;2023-07-09T04:03:48;91898.25;;;22.27;49.36
53300;BME280;39187;48.476;8.310;2023-07-09T04:06:13;91896.25;;;22.42;49.17
53300;BME280;39187;48.476;8.310;2023-07-09T04:08:39;91896.22;;;22.57;48.88
53300;BME280;39187;48.476;8.310;2023-07-09T04:11:05;91896.16;;;23.06;47.61
53300;BME280;39187;48.476;8.310;2023-07-09T04:13:30;91896.03;;;23.15;47.48
53300;BME280;39187;48.476;8.310;2023-07-09T04:15:56;91898.25;;;23.57;46.21
53300;BME280;39187;48.476;8.310;2023-07-09T04:18:22;91893.56;;;23.58;46.05
53300;BME280;39187;48.476;8.310;2023-07-09T04:20:49;91896.53;;;23.80;45.89
53300;BME280;39187;48.476;8.310;2023-07-09T04:23:15;91896.19;;;24.24;44.28
53300;BME280;39187;48.476;8.310;2023-07-09T04:25:41;91900.41;;;24.57;44.15
53300;BME280;39187;48.476;8.310;2023-07-09T04:28:06;91895.66;;;24.89;43.52
53300;BME280;39187;48.476;8.310;2023-07-09T04:30:32;91906.22;;;25.18;43.10
53300;BME280;39187;48.476;8.310;2023-07-09T04:32:57;91894.44;;;25.49;42.61
53300;BME280;39187;48.476;8.310;2023-07-09T04:35:23;91896.78;;;25.73;42.00
53300;BME280;39187;48.476;8.310;2023-07-09T04:37:49;91899.22;;;25.60;42.00
53300;BME280;39187;48.476;8.310;2023-07-09T04:40:17;91913.66;;;25.23;42.39
53300;BME280;39187;48.476;8.310;2023-07-09T04:42:42;91906.78;;;25.33;42.05
53300;BME280;39187;48.476;8.310;2023-07-09T04:45:10;91905.72;;;25.79;41.13
53300;BME280;39187;48.476;8.310;2023-07-09T04:47:36;91904.06;;;25.39;41.74
53300;BME280;39187;48.476;8.310;2023-07-09T04:50:06;91903.38;;;25.55;41.62
53300;BME280;39187;48.476;8.310;2023-07-09T04:52:33;91904.75;;;25.93;41.37
53300;BME280;39187;48.476;8.310;2023-07-09T04:54:58;91902.34;;;26.28;41.28
53300;BME280;39187;48.476;8.310;2023-07-09T04:57:26;91908.28;;;26.66;40.84
53300;BME280;39187;48.476;8.310;2023-07-09T04:59:52;91906.50;;;27.07;40.77
53300;BME280;39187;48.476;8.310;2023-07-09T05:02:17;91901.91;;;27.43;39.75
53300;BME280;39187;48.476;8.310;2023-07-09T05:04:43;91898.06;;;27.74;39.97
53300;BME280;39187;48.476;8.310;2023-07-09T05:07:08;91899.69;;;27.94;38.68
53300;BME280;39187;48.476;8.310;2023-07-09T05:09:34;91899.25;;;27.84;38.58
53300;BME280;39187;48.476;8.310;2023-07-09T05:11:59;91905.03;;;28.22;37.63
53300;BME280;39187;48.476;8.310;2023-07-09T05:14:27;91893.44;;;28.40;37.03
53300;BME280;39187;48.476;8.310;2023-07-09T05:16:53;91892.94;;;28.42;36.77
53300;BME280;39187;48.476;8.310;2023-07-09T05:19:18;91896.19;;;28.40;37.45
53300;BME280;39187;48.476;8.310;2023-07-09T05:21:44;91892.84;;;28.83;35.88
53300;BME280;39187;48.476;8.310;2023-07-09T05:24:09;91895.06;;;28.84;35.27
53300;BME280;39187;48.476;8.310;2023-07-09T05:26:35;91899.06;;;28.18;36.00
53300;BME280;39187;48.476;8.310;2023-07-09T05:29:02;91897.41;;;27.57;37.01
53300;BME280;39187;48.476;8.310;2023-07-09T05:31:29;91889.78;;;27.85;37.05
53300;BME280;39187;48.476;8.310;2023-07-09T05:33:55;91892.16;;;28.06;36.30
53300;BME280;39187;48.476;8.310;2023-07-09T05:36:20;91891.44;;;28.41;36.09
53300;BME280;39187;48.476;8.310;2023-07-09T05:38:46;91894.38;;;28.78;35.09
53300;BME280;39187;48.476;8.310;2023-07-09T05:41:12;91893.47;;;28.94;34.65
53300;BME280;39187;48.476;8.310;2023-07-09T05:43:38;91895.59;;;29.07;35.08
53300;BME280;39187;48.476;8.310;2023-07-09T05:46:05;91892.84;;;29.07;35.28
53300;BME280;39187;48.476;8.310;2023-07-09T05:48:30;91893.88;;;29.90;34.26
53300;BME280;39187;48.476;8.310;2023-07-09T05:50:56;91890.91;;;29.02;35.25
53300;BME280;39187;48.476;8.310;2023-07-09T05:53:22;91892.97;;;29.44;34.97
53300;BME280;39187;48.476;8.310;2023-07-09T05:55:48;91900.06;;;29.10;36.01
53300;BME280;39187;48.476;8.310;2023-07-09T05:58:13;91902.03;;;28.85;36.45
53300;BME280;39187;48.476;8.310;2023-07-09T06:00:39;91910.22;;;29.15;35.89
53300;BME280;39187;48.476;8.310;2023-07-09T06:03:04;91909.97;;;28.89;36.25
53300;BME280;39187;48.476;8.310;2023-07-09T06:05:33;91909.13;;;29.48;36.80
53300;BME280;39187;48.476;8.310;2023-07-09T06:07:58;91912.78;;;29.32;35.72
53300;BME280;39187;48.476;8.310;2023-07-09T06:10:24;91912.34;;;29.89;35.72
53300;BME280;39187;48.476;8.310;2023-07-09T06:12:50;91906.97;;;30.03;34.92
53300;BME280;39187;48.476;8.310;2023-07-09T06:15:15;91900.31;;;29.55;35.98
53300;BME280;39187;48.476;8.310;2023-07-09T06:17:41;91905.41;;;30.26;35.68
53300;BME280;39187;48.476;8.310;2023-07-09T06:20:08;91906.19;;;29.65;36.43
53300;BME280;39187;48.476;8.310;2023-07-09T06:22:34;91908.28;;;29.34;36.69
53300;BME280;39187;48.476;8.310;2023-07-09T06:24:59;91912.91;;;28.96;36.83
53300;BME280;39187;48.476;8.310;2023-07-09T06:27:25;91910.72;;;29.14;36.74
53300;BME280;39187;48.476;8.310;2023-07-09T06:29:51;91909.03;;;28.51;37.31
53300;BME280;39187;48.476;8.310;2023-07-09T06:32:17;91909.72;;;28.57;37.56
53300;BME280;39187;48.476;8.310;2023-07-09T06:34:42;91913.34;;;28.70;37.39
53300;BME280;39187;48.476;8.310;2023-07-09T06:37:08;91918.09;;;29.24;37.06
53300;BME280;39187;48.476;8.310;2023-07-09T06:39:33;91915.25;;;29.35;36.91
53300;BME280;39187;48.476;8.310;2023-07-09T06:41:59;91913.09;;;29.90;35.94
53300;BME280;39187;48.476;8.310;2023-07-09T06:44:24;91911.72;;;30.02;36.62
53300;BME280;39187;48.476;8.310;2023-07-09T06:46:51;91912.09;;;29.93;36.28
53300;BME280;39187;48.476;8.310;2023-07-09T06:49:16;91914.22;;;29.81;36.79
53300;BME280;39187;48.476;8.310;2023-07-09T06:51:42;91909.94;;;29.43;36.17
53300;BME280;39187;48.476;8.310;2023-07-09T06:54:08;91899.41;;;29.23;36.85
53300;BME280;39187;48.476;8.310;2023-07-09T06:56:34;91905.03;;;29.36;36.79
53300;BME280;39187;48.476;8.310;2023-07-09T06:59:00;91907.31;;;29.32;36.21
53300;BME280;39187;48.476;8.310;2023-07-09T07:01:25;91909.84;;;29.00;36.74
53300;BME280;39187;48.476;8.310;2023-07-09T07:03:51;91914.09;;;29.49;35.73
53300;BME280;39187;48.476;8.310;2023-07-09T07:06:16;91907.38;;;29.51;35.69
53300;BME280;39187;48.476;8.310;2023-07-09T07:08:42;91915.13;;;28.98;36.14
53300;BME280;39187;48.476;8.310;2023-07-09T07:11:08;91910.72;;;28.89;37.01
53300;BME280;39187;48.476;8.310;2023-07-09T07:13:39;91911.56;;;29.27;37.00
53300;BME280;39187;48.476;8.310;2023-07-09T07:16:08;91905.34;;;29.51;35.93
53300;BME280;39187;48.476;8.310;2023-07-09T07:18:34;91899.16;;;29.69;35.69
53300;BME280;39187;48.476;8.310;2023-07-09T07:21:00;91894.88;;;30.11;35.76
53300;BME280;39187;48.476;8.310;2023-07-09T07:23:26;91894.47;;;30.39;34.83
53300;BME280;39187;48.476;8.310;2023-07-09T07:25:52;91894.50;;;30.02;34.58
53300;BME280;39187;48.476;8.310;2023-07-09T07:28:19;91904.34;;;29.73;34.68
53300;BME280;39187;48.476;8.310;2023-07-09T07:30:44;91900.84;;;29.91;34.39
53300;BME280;39187;48.476;8.310;2023-07-09T07:33:12;91902.94;;;29.85;34.86
53300;BME280;39187;48.476;8.310;2023-07-09T07:35:38;91892.13;;;29.93;34.96
53300;BME280;39187;48.476;8.310;2023-07-09T07:38:04;91900.84;;;29.91;35.07
53300;BME280;39187;48.476;8.310;2023-07-09T07:40:29;91900.38;;;30.62;34.59
53300;BME280;39187;48.476;8.310;2023-07-09T07:42:55;91903.00;;;30.67;34.54
53300;BME280;39187;48.476;8.310;2023-07-09T07:45:21;91902.44;;;30.88;32.46
53300;BME280;39187;48.476;8.310;2023-07-09T07:47:47;91902.09;;;30.46;33.87
53300;BME280;39187;48.476;8.310;2023-07-09T07:50:13;91900.75;;;30.85;34.26
53300;BME280;39187;48.476;8.310;2023-07-09T07:52:39;91895.94;;;30.59;33.97
53300;BME280;39187;48.476;8.310;2023-07-09T07:55:05;91897.13;;;30.77;33.73
53300;BME280;39187;48.476;8.310;2023-07-09T07:57:31;91895.06;;;30.32;34.21
53300;BME280;39187;48.476;8.310;2023-07-09T07:59:57;91898.75;;;29.60;35.22
53300;BME280;39187;48.476;8.310;2023-07-09T08:02:23;91901.59;;;29.73;34.31
53300;BME280;39187;48.476;8.310;2023-07-09T08:04:49;91909.31;;;29.74;34.23
53300;BME280;39187;48.476;8.310;2023-07-09T08:07:17;91901.16;;;30.25;34.57
53300;BME280;39187;48.476;8.310;2023-07-09T08:09:44;91904.38;;;30.61;33.85
53300;BME280;39187;48.476;8.310;2023-07-09T08:12:10;91906.34;;;30.28;33.89
53300;BME280;39187;48.476;8.310;2023-07-09T08:14:38;91902.91;;;31.05;33.19
53300;BME280;39187;48.476;8.310;2023-07-09T08:17:04;91909.69;;;31.30;33.03
53300;BME280;39187;48.476;8.310;2023-07-09T08:19:30;91910.13;;;31.34;32.31
53300;BME280;39187;48.476;8.310;2023-07-09T08:21:56;91910.59;;;30.61;33.12
53300;BME280;39187;48.476;8.310;2023-07-09T08:24:22;91906.03;;;30.51;33.41
53300;BME280;39187;48.476;8.310;2023-07-09T08:26:47;91904.31;;;30.80;32.90
53300;BME280;39187;48.476;8.310;2023-07-09T08:29:13;91899.38;;;30.27;34.17
53300;BME280;39187;48.476;8.310;2023-07-09T08:31:38;91904.16;;;30.08;33.95
53300;BME280;39187;48.476;8.310;2023-07-09T08:34:06;91908.34;;;30.28;33.83
53300;BME280;39187;48.476;8.310;2023-07-09T08:36:32;91913.00;;;30.01;34.11
53300;BME280;39187;48.476;8.310;2023-07-09T08:38:58;91909.72;;;30.21;33.90
53300;BME280;39187;48.476;8.310;2023-07-09T08:41:37;91906.66;;;30.06;33.39
53300;BME280;39187;48.476;8.310;2023-07-09T08:44:26;91915.94;;;30.73;32.82
53300;BME280;39187;48.476;8.310;2023-07-09T08:47:06;91914.50;;;30.85;32.18
53300;BME280;39187;48.476;8.310;2023-07-09T08:52:38;91915.28;;;30.66;32.40
53300;BME280;39187;48.476;8.310;2023-07-09T08:55:27;91910.28;;;30.33;32.19
53300;BME280;39187;48.476;8.310;2023-07-09T08:58:20;91917.34;;;30.92;33.02
53300;BME280;39187;48.476;8.310;2023-07-09T09:00:59;91923.03;;;31.53;31.98
53300;BME280;39187;48.476;8.310;2023-07-09T09:03:48;91925.97;;;30.70;30.97
53300;BME280;39187;48.476;8.310;2023-07-09T09:06:21;91927.63;;;30.41;30.49
53300;BME280;39187;48.476;8.310;2023-07-09T09:13:50;91926.53;;;31.53;30.46
53300;BME280;39187;48.476;8.310;2023-07-09T09:16:35;91927.28;;;31.93;30.31
53300;BME280;39187;48.476;8.310;2023-07-09T09:19:13;91924.28;;;31.12;30.19
53300;BME280;39187;48.476;8.310;2023-07-09T09:21:41;91917.84;;;31.10;29.56
53300;BME280;39187;48.476;8.310;2023-07-09T09:24:21;91920.38;;;30.76;30.50
53300;BME280;39187;48.476;8.310;2023-07-09T09:26:52;91923.34;;;31.23;30.88
53300;BME280;39187;48.476;8.310;2023-07-09T09:29:18;91919.53;;;31.26;31.25
53300;BME280;39187;48.476;8.310;2023-07-09T09:31:48;91914.16;;;30.88;30.63
53300;BME280;39187;48.476;8.310;2023-07-09T09:34:27;91906.63;;;30.44;31.27
53300;BME280;39187;48.476;8.310;2023-07-09T09:36:55;91898.31;;;30.31;30.52
53300;BME280;39187;48.476;8.310;2023-07-09T09:39:23;91891.44;;;30.24;29.66
53300;BME280;39187;48.476;8.310;2023-07-09T09:41:53;91893.28;;;31.12;29.70
53300;BME280;39187;48.476;8.310;2023-07-09T09:44:24;91894.16;;;31.59;29.75
53300;BME280;39187;48.476;8.310;2023-07-09T09:46:50;91901.03;;;30.81;29.54
53300;BME280;39187;48.476;8.310;2023-07-09T09:49:16;91890.53;;;31.25;28.86
53300;BME280;39187;48.476;8.310;2023-07-09T09:51:45;91897.63;;;31.07;29.52
53300;BME280;39187;48.476;8.310;2023-07-09T09:54:18;91898.59;;;30.64;27.89
53300;BME280;39187;48.476;8.310;2023-07-09T09:56:44;91893.28;;;30.53;29.67
53300;BME280;39187;48.476;8.310;2023-07-09T09:59:18;91893.28;;;30.16;30.00
53300;BME280;39187;48.476;8.310;2023-07-09T10:01:44;91894.22;;;30.37;29.94
53300;BME280;39187;48.476;8.310;2023-07-09T10:04:16;91896.88;;;30.61;29.09
53300;BME280;39187;48.476;8.310;2023-07-09T10:06:59;91888.47;;;29.66;30.94
53300;BME280;39187;48.476;8.310;2023-07-09T10:09:49;91887.56;;;29.58;30.41
53300;BME280;39187;48.476;8.310;2023-07-09T10:15:01;91880.25;;;30.03;30.86
53300;BME280;39187;48.476;8.310;2023-07-09T10:17:36;91889.66;;;29.89;30.82
53300;BME280;39187;48.476;8.310;2023-07-09T10:22:40;91881.94;;;30.25;30.52
53300;BME280;39187;48.476;8.310;2023-07-09T10:30:52;91892.75;;;29.61;30.91
53300;BME280;39187;48.476;8.310;2023-07-09T10:33:30;91891.69;;;29.45;31.23
53300;BME280;39187;48.476;8.310;2023-07-09T10:39:13;91886.91;;;29.27;30.85
53300;BME280;39187;48.476;8.310;2023-07-09T10:41:38;91884.72;;;29.20;31.32
53300;BME280;39187;48.476;8.310;2023-07-09T10:46:38;91891.63;;;29.51;31.19
53300;BME280;39187;48.476;8.310;2023-07-09T10:49:05;91884.75;;;29.63;29.39
53300;BME280;39187;48.476;8.310;2023-07-09T10:54:34;91899.53;;;29.12;32.05
53300;BME280;39187;48.476;8.310;2023-07-09T10:57:14;91894.28;;;29.14;32.14
53300;BME280;39187;48.476;8.310;2023-07-09T10:59:46;91892.31;;;29.33;32.10
53300;BME280;39187;48.476;8.310;2023-07-09T11:02:26;91877.88;;;29.57;31.93
53300;BME280;39187;48.476;8.310;2023-07-09T11:05:04;91882.31;;;29.60;31.39
53300;BME280;39187;48.476;8.310;2023-07-09T11:07:38;91880.03;;;28.66;27.94
53300;BME280;39187;48.476;8.310;2023-07-09T11:10:19;91885.31;;;28.59;29.46
53300;BME280;39187;48.476;8.310;2023-07-09T11:13:03;91890.03;;;28.58;30.01
53300;BME280;39187;48.476;8.310;2023-07-09T11:15:36;91890.41;;;28.79;29.49
53300;BME280;39187;48.476;8.310;2023-07-09T11:18:07;91887.53;;;28.90;30.08
53300;BME280;39187;48.476;8.310;2023-07-09T11:20:42;91882.78;;;29.15;30.53
53300;BME280;39187;48.476;8.310;2023-07-09T11:23:21;91881.94;;;29.01;30.20
53300;BME280;39187;48.476;8.310;2023-07-09T11:25:59;91873.66;;;29.07;29.51
53300;BME280;39187;48.476;8.310;2023-07-09T11:28:34;91870.44;;;29.27;29.53
53300;BME280;39187;48.476;8.310;2023-07-09T11:31:08;91872.16;;;29.55;29.13
53300;BME280;39187;48.476;8.310;2023-07-09T11:33:48;91869.69;;;29.51;29.73
53300;BME280;39187;48.476;8.310;2023-07-09T11:36:24;91873.16;;;28.84;30.20
53300;BME280;39187;48.476;8.310;2023-07-09T11:38:52;91872.97;;;29.01;29.71
53300;BME280;39187;48.476;8.310;2023-07-09T11:41:40;91879.09;;;29.13;28.64
53300;BME280;39187;48.476;8.310;2023-07-09T11:44:16;91871.66;;;28.83;29.19
53300;BME280;39187;48.476;8.310;2023-07-09T11:49:32;91862.31;;;28.97;28.58
53300;BME280;39187;48.476;8.310;2023-07-09T11:52:04;91870.47;;;29.03;28.98
53300;BME280;39187;48.476;8.310;2023-07-09T11:54:38;91858.81;;;28.97;29.67
53300;BME280;39187;48.476;8.310;2023-07-09T11:57:11;91870.91;;;28.83;28.91
53300;BME280;39187;48.476;8.310;2023-07-09T11:59:40;91869.19;;;29.28;28.56
53300;BME280;39187;48.476;8.310;2023-07-09T12:02:16;91870.72;;;29.48;28.47
53300;BME280;39187;48.476;8.310;2023-07-09T12:04:42;91858.53;;;29.25;28.36
53300;BME280;39187;48.476;8.310;2023-07-09T12:07:12;91869.19;;;29.28;29.89
53300;BME280;39187;48.476;8.310;2023-07-09T12:09:41;91864.06;;;29.43;28.43
53300;BME280;39187;48.476;8.310;2023-07-09T12:12:25;91863.00;;;29.46;28.82
53300;BME280;39187;48.476;8.310;2023-07-09T12:14:51;91863.44;;;29.32;28.80
53300;BME280;39187;48.476;8.310;2023-07-09T12:17:17;91854.34;;;29.42;28.19
53300;BME280;39187;48.476;8.310;2023-07-09T12:19:44;91856.03;;;29.45;27.91
53300;BME280;39187;48.476;8.310;2023-07-09T12:22:22;91858.72;;;29.51;27.83
53300;BME280;39187;48.476;8.310;2023-07-09T12:24:49;91854.22;;;29.29;27.47
53300;BME280;39187;48.476;8.310;2023-07-09T12:27:21;91848.69;;;29.35;27.24
53300;BME280;39187;48.476;8.310;2023-07-09T12:29:47;91853.38;;;29.40;27.67
53300;BME280;39187;48.476;8.310;2023-07-09T12:32:15;91850.50;;;29.27;29.11
53300;BME280;39187;48.476;8.310;2023-07-09T12:34:41;91841.31;;;29.67;28.62
53300;BME280;39187;48.476;8.310;2023-07-09T12:37:12;91839.38;;;29.81;28.45
53300;BME280;39187;48.476;8.310;2023-07-09T12:39:39;91844.94;;;29.57;28.75
53300;BME280;39187;48.476;8.310;2023-07-09T12:42:04;91838.41;;;29.97;29.88
53300;BME280;39187;48.476;8.310;2023-07-09T12:44:34;91839.13;;;30.16;31.32
53300;BME280;39187;48.476;8.310;2023-07-09T12:47:01;91832.06;;;30.21;29.90
53300;BME280;39187;48.476;8.310;2023-07-09T12:49:29;91826.25;;;29.74;29.93
53300;BME280;39187;48.476;8.310;2023-07-09T12:52:00;91824.00;;;29.72;29.33
53300;BME280;39187;48.476;8.310;2023-07-09T12:54:28;91827.75;;;29.94;29.70
53300;BME280;39187;48.476;8.310;2023-07-09T12:56:55;91829.78;;;30.06;29.79
53300;BME280;39187;48.476;8.310;2023-07-09T12:59:26;91821.84;;;29.84;29.10
53300;BME280;39187;48.476;8.310;2023-07-09T13:02:15;91827.50;;;29.54;29.05
53300;BME280;39187;48.476;8.310;2023-07-09T13:04:41;91816.75;;;29.94;28.35
53300;BME280;39187;48.476;8.310;2023-07-09T13:09:52;91822.38;;;30.01;29.15
53300;BME280;39187;48.476;8.310;2023-07-09T13:12:19;91817.13;;;29.66;28.84
53300;BME280;39187;48.476;8.310;2023-07-09T13:14:54;91818.91;;;29.44;28.60
53300;BME280;39187;48.476;8.310;2023-07-09T13:17:20;91818.59;;;29.67;27.67
53300;BME280;39187;48.476;8.310;2023-07-09T13:19:46;91809.59;;;29.10;28.73
53300;BME280;39187;48.476;8.310;2023-07-09T13:22:16;91800.94;;;29.25;28.04
53300;BME280;39187;48.476;8.310;2023-07-09T13:24:42;91802.97;;;29.00;28.42
53300;BME280;39187;48.476;8.310;2023-07-09T13:27:15;91799.88;;;29.28;28.96
53300;BME280;39187;48.476;8.310;2023-07-09T13:29:41;91812.13;;;29.27;28.91
53300;BME280;39187;48.476;8.310;2023-07-09T13:34:45;91805.56;;;29.54;28.53
53300;BME280;39187;48.476;8.310;2023-07-09T13:37:13;91802.72;;;29.22;28.33
53300;BME280;39187;48.476;8.310;2023-07-09T13:39:40;91793.63;;;29.52;28.22
53300;BME280;39187;48.476;8.310;2023-07-09T13:42:13;91787.50;;;29.77;27.09
53300;BME280;39187;48.476;8.310;2023-07-09T13:44:42;91789.34;;;29.56;27.16
53300;BME280;39187;48.476;8.310;2023-07-09T13:47:18;91788.06;;;29.57;26.59
53300;BME280;39187;48.476;8.310;2023-07-09T13:49:45;91790.56;;;29.74;26.53
53300;BME280;39187;48.476;8.310;2023-07-09T13:52:18;91787.22;;;29.81;27.25